Time;durP1;ratioP1;P1;durP2;ratioP2;P2;SDS_P1;SDS_P2;PMS_P1;PMS_P2;Temp;Humidity;BMP_temperature;BMP_pressure;BME280_temperature;BME280_humidity;BME280_pressure;Samples;Min_cycle;Max_cycle;Signal;HPM_P1;HPM_P2
2021/07/04 00:00:22;;;;;;;13.25;6.47;;;22.40;95.90;;;;;;5054061;28;20032;-63
2021/07/04 00:02:49;;;;;;;6.22;5.30;;;22.30;96.00;;;;;;5071502;28;20032;-62
2021/07/04 00:05:17;;;;;;;7.53;5.35;;;22.30;96.20;;;;;;5071416;28;20183;-63
2021/07/04 00:07:43;;;;;;;5.88;4.30;;;22.20;96.00;;;;;;5053614;28;20123;-63
2021/07/04 00:10:16;;;;;;;6.72;5.13;;;22.20;96.20;;;;;;5071573;28;20156;-63
2021/07/04 00:12:41;;;;;;;5.57;4.18;;;22.30;96.20;;;;;;5070767;28;20024;-64
2021/07/04 00:15:10;;;;;;;6.80;4.15;;;22.10;96.00;;;;;;5053805;28;20047;-63
2021/07/04 00:17:35;;;;;;;4.72;4.20;;;22.10;96.10;;;;;;5051937;28;20487;-62
2021/07/04 00:20:08;;;;;;;5.82;4.50;;;22.00;96.20;;;;;;5071474;28;20024;-63
2021/07/04 00:22:34;;;;;;;6.35;5.05;;;22.00;96.30;;;;;;5070488;28;20036;-63
2021/07/04 00:24:59;;;;;;;5.03;4.28;;;22.10;96.20;;;;;;5071638;28;20028;-64
2021/07/04 00:27:25;;;;;;;6.63;4.82;;;22.10;96.30;;;;;;5052625;28;20033;-62
2021/07/04 00:29:51;;;;;;;8.13;4.90;;;21.90;96.90;;;;;;5053317;28;20119;-62
2021/07/04 00:32:16;;;;;;;6.25;4.90;;;21.80;97.40;;;;;;5071079;28;20032;-63
2021/07/04 00:34:42;;;;;;;6.57;5.30;;;21.70;97.80;;;;;;5069959;28;20028;-62
2021/07/04 00:37:08;;;;;;;8.63;5.13;;;21.60;98.10;;;;;;5053051;28;20055;-63
2021/07/04 00:39:33;;;;;;;6.95;5.60;;;21.60;98.50;;;;;;5070176;28;20048;-62
2021/07/04 00:41:59;;;;;;;8.70;5.50;;;21.40;98.90;;;;;;5052911;28;20105;-63
2021/07/04 00:44:24;;;;;;;5.80;5.18;;;21.40;99.30;;;;;;5070024;28;20151;-63
2021/07/04 00:46:50;;;;;;;6.28;4.90;;;21.30;99.40;;;;;;5052989;28;20039;-64
2021/07/04 00:49:16;;;;;;;6.60;4.32;;;21.30;99.60;;;;;;5052929;28;20073;-63
2021/07/04 00:51:41;;;;;;;6.28;5.28;;;21.30;99.70;;;;;;5052088;28;20028;-63
2021/07/04 00:54:07;;;;;;;6.95;5.57;;;21.30;99.90;;;;;;5052958;28;20032;-65
2021/07/04 00:56:33;;;;;;;7.90;5.20;;;21.20;99.90;;;;;;5070095;28;20065;-62
2021/07/04 00:58:58;;;;;;;7.43;5.40;;;21.10;99.90;;;;;;5052544;28;20021;-63
2021/07/04 01:01:24;;;;;;;6.22;5.45;;;21.00;99.90;;;;;;5052049;28;20028;-62
2021/07/04 01:03:50;;;;;;;6.85;5.03;;;20.90;99.90;;;;;;5070531;28;20033;-62
2021/07/04 01:06:15;;;;;;;6.93;4.28;;;21.00;99.90;;;;;;5070704;28;20411;-62
2021/07/04 01:08:41;;;;;;;9.50;5.95;;;20.90;99.90;;;;;;5070576;28;20409;-62
2021/07/04 01:11:07;;;;;;;8.57;5.00;;;20.80;99.90;;;;;;5071037;28;20394;-63
2021/07/04 01:13:33;;;;;;;8.00;5.65;;;20.80;99.90;;;;;;5069917;28;20067;-62
2021/07/04 01:15:59;;;;;;;7.97;6.00;;;20.80;99.90;;;;;;5052269;28;20035;-63
2021/07/04 01:18:25;;;;;;;7.00;6.30;;;20.80;99.90;;;;;;5070064;28;20058;-62
2021/07/04 01:20:52;;;;;;;7.68;5.78;;;20.80;99.90;;;;;;5070924;28;20032;-64
2021/07/04 01:23:18;;;;;;;6.38;5.80;;;20.70;99.90;;;;;;5070517;28;20591;-62
2021/07/04 01:25:51;;;;;;;7.93;5.85;;;20.70;99.90;;;;;;5069702;28;20442;-63
2021/07/04 01:28:17;;;;;;;6.63;5.85;;;20.70;99.90;;;;;;5052972;28;20447;-63
2021/07/04 01:30:45;;;;;;;7.95;6.07;;;20.70;99.90;;;;;;5058272;28;20043;-64
2021/07/04 01:33:11;;;;;;;9.73;6.43;;;20.70;99.90;;;;;;5077011;28;20032;-63
2021/07/04 01:35:37;;;;;;;6.75;5.47;;;20.50;99.90;;;;;;5076438;28;20103;-64
2021/07/04 01:38:03;;;;;;;6.10;5.20;;;20.60;99.90;;;;;;5059240;28;20534;-62
2021/07/04 01:40:31;;;;;;;7.82;5.70;;;20.60;99.90;;;;;;5058420;28;20484;-62
2021/07/04 01:42:57;;;;;;;7.63;5.55;;;20.70;99.90;;;;;;5077330;28;20054;-63
2021/07/04 01:45:23;;;;;;;6.45;5.80;;;20.70;99.90;;;;;;5058957;28;20112;-70
2021/07/04 01:47:51;;;;;;;8.52;6.70;;;20.70;99.90;;;;;;5058928;28;20036;-64
2021/07/04 01:50:23;;;;;;;8.68;6.18;;;20.60;99.90;;;;;;5076823;28;20064;-63
2021/07/04 01:52:50;;;;;;;10.48;6.38;;;20.60;99.90;;;;;;5076542;28;20033;-63
2021/07/04 01:55:16;;;;;;;6.95;5.55;;;20.50;99.90;;;;;;5076796;28;20035;-62
2021/07/04 01:57:43;;;;;;;9.73;6.10;;;20.60;99.90;;;;;;5057546;28;20032;-63
2021/07/04 02:00:13;;;;;;;7.90;6.43;;;20.60;99.90;;;;;;5076542;28;20111;-64
2021/07/04 02:02:40;;;;;;;8.32;6.22;;;20.50;99.90;;;;;;5058109;28;20025;-64
2021/07/04 02:05:07;;;;;;;7.40;6.10;;;20.50;99.90;;;;;;5058591;28;20032;-62
2021/07/04 02:07:33;;;;;;;6.85;5.55;;;20.50;99.90;;;;;;5063834;28;20063;-62
2021/07/04 02:09:58;;;;;;;6.70;5.85;;;20.40;99.90;;;;;;5057168;28;20076;-63
2021/07/04 02:12:24;;;;;;;7.40;6.43;;;20.40;99.90;;;;;;5056236;28;20409;-73
2021/07/04 02:14:50;;;;;;;32.85;8.15;;;20.40;99.90;;;;;;5056644;28;20021;-63
2021/07/04 02:17:16;;;;;;;8.55;5.82;;;20.40;99.90;;;;;;5038653;28;20100;-63
2021/07/04 02:19:42;;;;;;;7.38;5.60;;;20.30;99.90;;;;;;5055760;28;20332;-62
2021/07/04 02:22:09;;;;;;;6.63;5.45;;;20.20;99.90;;;;;;5056203;28;20386;-62
2021/07/04 02:24:35;;;;;;;10.40;6.20;;;20.20;99.90;;;;;;5070289;28;20049;-64
2021/07/04 02:27:02;;;;;;;6.55;5.32;;;20.20;99.90;;;;;;5076613;28;20119;-64
2021/07/04 02:29:28;;;;;;;6.13;5.53;;;20.30;99.90;;;;;;5074720;28;20420;-64
2021/07/04 02:31:54;;;;;;;8.32;5.97;;;20.30;99.90;;;;;;5076303;28;20422;-64
2021/07/04 02:34:20;;;;;;;7.43;5.78;;;20.30;99.90;;;;;;5075253;28;20031;-63
2021/07/04 02:36:45;;;;;;;7.30;5.68;;;20.30;99.90;;;;;;5076105;28;20441;-64
2021/07/04 02:39:15;;;;;;;6.70;5.55;;;20.30;99.90;;;;;;5076277;28;20029;-64
2021/07/04 02:41:42;;;;;;;6.10;5.47;;;20.20;99.90;;;;;;5071049;28;20031;-64
2021/07/04 02:44:08;;;;;;;7.53;5.80;;;20.20;99.90;;;;;;5073681;28;20044;-64
2021/07/04 02:46:34;;;;;;;8.52;6.20;;;20.20;99.90;;;;;;5071350;28;20036;-64
2021/07/04 02:49:00;;;;;;;8.60;6.03;;;20.20;99.90;;;;;;5072183;28;20074;-64
2021/07/04 02:51:26;;;;;;;7.72;6.43;;;20.20;99.90;;;;;;5073422;28;20051;-65
2021/07/04 02:53:52;;;;;;;6.82;5.72;;;20.20;99.90;;;;;;5073284;28;20063;-64
2021/07/04 02:56:17;;;;;;;6.72;5.53;;;20.20;99.90;;;;;;5071936;28;20032;-64
2021/07/04 02:58:43;;;;;;;7.85;6.03;;;20.10;99.90;;;;;;5071355;28;20131;-64
2021/07/04 03:01:09;;;;;;;7.72;5.78;;;20.10;99.90;;;;;;5073393;28;20373;-64
2021/07/04 03:03:34;;;;;;;8.05;5.80;;;20.00;99.90;;;;;;5072439;28;20029;-64
2021/07/04 03:06:00;;;;;;;6.50;5.80;;;20.00;99.90;;;;;;5071747;28;20032;-64
2021/07/04 03:08:26;;;;;;;8.38;6.18;;;20.00;99.90;;;;;;5071481;28;20437;-64
2021/07/04 03:10:52;;;;;;;8.43;6.55;;;20.00;99.90;;;;;;5070902;28;20078;-64
2021/07/04 03:13:17;;;;;;;10.15;5.97;;;20.00;99.90;;;;;;5072869;28;20078;-66
2021/07/04 03:15:43;;;;;;;6.88;5.93;;;20.00;99.90;;;;;;5070671;28;20020;-64
2021/07/04 03:18:08;;;;;;;6.97;5.90;;;20.00;99.90;;;;;;5071124;28;20119;-64
2021/07/04 03:20:34;;;;;;;6.85;5.47;;;20.10;99.90;;;;;;5070520;28;20065;-64
2021/07/04 03:23:00;;;;;;;8.90;6.45;;;19.90;99.90;;;;;;5071050;28;20522;-64
2021/07/04 03:25:26;;;;;;;6.55;5.90;;;20.00;99.90;;;;;;5072709;28;20028;-64
2021/07/04 03:27:51;;;;;;;7.45;5.20;;;20.00;99.90;;;;;;5071945;28;20033;-63
2021/07/04 03:30:20;;;;;;;6.00;5.40;;;20.10;99.90;;;;;;5071180;28;20066;-64
2021/07/04 03:32:47;;;;;;;7.28;6.28;;;20.10;99.90;;;;;;5070427;28;20107;-64
2021/07/04 03:35:14;;;;;;;6.93;5.90;;;19.90;99.90;;;;;;5070894;28;20029;-64
2021/07/04 03:37:40;;;;;;;6.30;5.68;;;19.90;99.90;;;;;;5071010;28;20550;-67
2021/07/04 03:40:09;;;;;;;6.65;5.65;;;19.80;99.90;;;;;;5072338;28;20020;-64
2021/07/04 03:42:34;;;;;;;7.90;6.00;;;19.90;99.90;;;;;;5070247;28;20024;-63
2021/07/04 03:45:00;;;;;;;5.82;5.25;;;19.90;99.90;;;;;;5072438;28;20036;-64
2021/07/04 03:47:26;;;;;;;9.23;5.45;;;19.90;99.90;;;;;;5072267;28;20477;-64
2021/07/04 03:49:53;;;;;;;6.40;5.80;;;19.90;99.90;;;;;;5071591;28;20025;-64
2021/07/04 03:52:18;;;;;;;6.95;5.43;;;19.70;99.90;;;;;;5069588;28;20052;-63
2021/07/04 03:54:44;;;;;;;7.38;5.32;;;19.70;99.90;;;;;;5071555;28;20064;-64
2021/07/04 03:57:23;;;;;;;6.10;5.10;;;19.70;99.90;;;;;;5070671;28;20032;-64
2021/07/04 03:59:58;;;;;;;5.93;5.32;;;19.70;99.90;;;;;;5071258;28;20103;-64
2021/07/04 04:02:24;;;;;;;8.02;5.50;;;19.60;99.90;;;;;;5071695;28;20033;-64
2021/07/04 04:04:54;;;;;;;5.63;5.13;;;19.70;99.90;;;;;;5069455;28;20543;-63
2021/07/04 04:07:20;;;;;;;6.43;5.47;;;19.70;99.90;;;;;;5070160;28;20039;-64
2021/07/04 04:09:47;;;;;;;6.43;5.10;;;19.70;99.90;;;;;;5071032;28;20263;-64
2021/07/04 04:12:13;;;;;;;7.88;5.45;;;19.70;99.90;;;;;;5072053;28;20042;-64
2021/07/04 04:14:39;;;;;;;6.00;5.40;;;19.70;99.90;;;;;;5069796;28;20596;-64
2021/07/04 04:17:05;;;;;;;7.57;5.93;;;19.80;99.90;;;;;;5071627;28;20036;-64
2021/07/04 04:19:32;;;;;;;8.43;6.07;;;19.80;99.90;;;;;;5071445;28;20028;-64
2021/07/04 04:21:57;;;;;;;6.05;5.45;;;19.90;99.90;;;;;;5069796;28;20123;-64
2021/07/04 04:24:23;;;;;;;6.93;6.10;;;19.90;99.90;;;;;;5069578;28;20554;-64
2021/07/04 04:26:49;;;;;;;5.88;5.38;;;19.90;99.90;;;;;;5070585;28;20036;-65
2021/07/04 04:29:14;;;;;;;6.70;5.82;;;19.80;99.90;;;;;;5071060;28;20342;-64
2021/07/04 04:31:40;;;;;;;6.75;5.63;;;19.80;99.90;;;;;;5070611;28;20470;-64
2021/07/04 04:34:06;;;;;;;6.95;5.65;;;19.80;99.90;;;;;;5070923;28;20017;-64
2021/07/04 04:36:31;;;;;;;8.20;5.57;;;19.80;99.90;;;;;;5071201;28;20033;-64
2021/07/04 04:38:57;;;;;;;8.40;6.30;;;19.90;99.90;;;;;;5070574;28;20024;-64
2021/07/04 04:41:23;;;;;;;12.00;6.13;;;19.80;99.90;;;;;;5070912;28;20029;-64
2021/07/04 04:43:48;;;;;;;5.93;5.18;;;19.80;99.90;;;;;;5070457;28;20024;-65
2021/07/04 04:46:14;;;;;;;7.28;6.43;;;19.80;99.90;;;;;;5069641;28;20477;-64
2021/07/04 04:48:39;;;;;;;7.00;6.30;;;19.70;99.90;;;;;;5070347;28;20099;-64
2021/07/04 04:51:06;;;;;;;7.68;6.05;;;19.80;99.90;;;;;;5069464;28;20399;-64
2021/07/04 04:53:32;;;;;;;7.50;6.35;;;19.90;99.90;;;;;;5071259;28;20374;-64
2021/07/04 04:55:57;;;;;;;6.43;5.38;;;19.90;99.90;;;;;;5070014;28;20024;-64
2021/07/04 04:58:23;;;;;;;6.63;5.72;;;19.90;99.90;;;;;;5070552;28;20441;-63
2021/07/04 05:00:49;;;;;;;6.15;5.25;;;19.90;99.90;;;;;;5069871;28;20485;-63
2021/07/04 05:03:14;;;;;;;8.55;6.30;;;19.90;99.90;;;;;;5068903;28;20063;-63
2021/07/04 05:05:40;;;;;;;6.97;5.80;;;19.90;99.90;;;;;;5069795;28;20028;-63
2021/07/04 05:08:06;;;;;;;13.25;6.80;;;19.90;99.90;;;;;;5068867;28;20039;-63
2021/07/04 05:10:31;;;;;;;9.02;7.10;;;19.90;99.90;;;;;;5070792;28;20034;-63
2021/07/04 05:12:57;;;;;;;9.82;7.05;;;19.90;99.90;;;;;;5070286;28;20477;-64
2021/07/04 05:15:23;;;;;;;8.68;5.82;;;19.90;99.90;;;;;;5069465;28;20028;-63
2021/07/04 05:17:48;;;;;;;6.63;5.85;;;19.80;99.90;;;;;;5068654;28;20404;-64
2021/07/04 05:20:14;;;;;;;8.13;6.60;;;19.80;99.90;;;;;;5070135;28;20464;-64
2021/07/04 05:22:40;;;;;;;7.88;7.03;;;19.70;99.90;;;;;;5067552;28;20063;-64
2021/07/04 05:25:06;;;;;;;9.05;6.47;;;19.80;99.90;;;;;;5032400;28;20024;-64
2021/07/04 05:27:32;;;;;;;7.80;6.05;;;19.90;99.90;;;;;;5050594;28;20485;-64
2021/07/04 05:29:58;;;;;;;8.38;6.88;;;20.00;99.90;;;;;;5049965;28;20033;-64
2021/07/04 05:32:23;;;;;;;7.50;6.47;;;20.00;99.90;;;;;;5032491;28;20407;-62
2021/07/04 05:34:49;;;;;;;8.25;6.95;;;20.00;99.90;;;;;;5031671;28;20033;-64
2021/07/04 05:37:16;;;;;;;9.85;6.45;;;20.00;99.90;;;;;;5032594;28;20029;-64
2021/07/04 05:39:42;;;;;;;9.30;6.25;;;20.00;99.90;;;;;;5049699;28;20036;-64
2021/07/04 05:42:08;;;;;;;8.18;6.75;;;19.90;99.90;;;;;;5050527;28;20339;-64
2021/07/04 05:44:34;;;;;;;7.85;6.78;;;20.00;99.90;;;;;;5032267;28;20028;-64
2021/07/04 05:46:59;;;;;;;9.35;6.30;;;20.10;99.90;;;;;;5031855;28;20584;-64
2021/07/04 05:49:25;;;;;;;8.68;6.32;;;20.10;99.90;;;;;;5050783;28;20056;-64
2021/07/04 05:51:51;;;;;;;7.40;6.63;;;20.10;99.90;;;;;;5031248;28;20479;-64
2021/07/04 05:54:17;;;;;;;7.38;6.68;;;20.20;99.90;;;;;;5032210;28;20040;-62
2021/07/04 05:56:43;;;;;;;7.68;6.60;;;20.10;99.90;;;;;;5031664;28;20458;-64
2021/07/04 05:59:08;;;;;;;7.35;6.65;;;20.10;99.90;;;;;;5050245;28;20470;-63
2021/07/04 06:01:34;;;;;;;13.65;6.50;;;20.20;99.90;;;;;;5050143;28;20035;-62
2021/07/04 06:04:00;;;;;;;9.60;6.72;;;20.20;99.90;;;;;;5031336;28;20025;-63
2021/07/04 06:06:26;;;;;;;6.68;5.90;;;20.30;99.90;;;;;;5031994;28;20358;-63
2021/07/04 06:08:51;;;;;;;9.27;6.22;;;20.40;99.90;;;;;;5049118;28;20428;-65
2021/07/04 06:11:17;;;;;;;7.57;4.85;;;20.40;99.90;;;;;;5034258;28;20437;-76
2021/07/04 06:13:43;;;;;;;10.88;5.45;;;20.50;99.90;;;;;;5067779;28;20527;-75
2021/07/04 06:16:09;;;;;;;6.72;5.78;;;20.70;99.90;;;;;;5050488;28;20111;-77
2021/07/04 06:18:35;;;;;;;9.18;6.78;;;21.00;99.90;;;;;;5055484;28;20036;-72
2021/07/04 06:21:01;;;;;;;5.95;4.28;;;20.90;99.90;;;;;;5054683;28;20087;-72
2021/07/04 06:23:27;;;;;;;9.57;5.97;;;21.00;99.90;;;;;;5069512;28;20083;-72
2021/07/04 06:25:52;;;;;;;9.43;5.68;;;21.10;99.90;;;;;;5091978;28;20047;-72
2021/07/04 06:28:18;;;;;;;10.93;5.82;;;21.20;99.90;;;;;;5091328;28;20115;-73
2021/07/04 06:30:43;;;;;;;8.27;4.78;;;21.20;99.90;;;;;;5071201;28;20445;-72
2021/07/04 06:33:09;;;;;;;5.90;5.30;;;21.20;99.90;;;;;;5071891;28;20377;-71
2021/07/04 06:35:35;;;;;;;6.13;5.22;;;21.40;99.90;;;;;;5071970;28;20108;-72
2021/07/04 06:38:00;;;;;;;6.97;5.68;;;21.50;99.90;;;;;;5071376;28;20443;-72
2021/07/04 06:40:26;;;;;;;7.03;6.10;;;21.50;99.90;;;;;;5071905;28;20458;-72
2021/07/04 06:42:52;;;;;;;6.53;5.30;;;21.40;99.90;;;;;;5071066;28;20021;-73
2021/07/04 06:45:17;;;;;;;10.40;5.40;;;21.40;99.90;;;;;;5071509;28;20393;-72
2021/07/04 06:47:46;;;;;;;5.47;4.97;;;21.40;99.90;;;;;;5072230;28;20032;-73
2021/07/04 06:50:12;;;;;;;8.05;6.20;;;21.40;99.90;;;;;;5071521;28;20044;-73
2021/07/04 06:52:38;;;;;;;5.15;4.32;;;21.50;99.90;;;;;;5089420;28;20063;-71
2021/07/04 06:55:05;;;;;;;5.85;4.93;;;21.70;99.90;;;;;;5092647;28;20070;-72
2021/07/04 06:57:31;;;;;;;5.10;4.22;;;22.00;99.90;;;;;;5073709;28;20131;-54
2021/07/04 06:59:59;;;;;;;4.45;4.05;;;22.30;99.90;;;;;;5077996;28;20457;-55
2021/07/04 07:02:26;;;;;;;6.28;4.35;;;22.50;99.90;;;;;;5092707;28;20571;-55
2021/07/04 07:04:52;;;;;;;4.45;3.95;;;22.70;99.90;;;;;;5071816;28;20491;-55
2021/07/04 07:07:20;;;;;;;6.45;4.43;;;22.90;99.90;;;;;;5072299;28;20110;-55
2021/07/04 07:09:46;;;;;;;8.02;5.10;;;23.00;99.90;;;;;;5071772;28;20066;-55
2021/07/04 07:12:11;;;;;;;5.75;4.43;;;23.10;99.90;;;;;;5072352;28;20116;-53
2021/07/04 07:14:37;;;;;;;5.95;5.15;;;23.20;99.90;;;;;;5071477;28;20444;-54
2021/07/04 07:17:03;;;;;;;5.50;4.75;;;23.20;99.90;;;;;;5070255;28;20138;-54
2021/07/04 07:19:29;;;;;;;5.45;4.95;;;23.20;99.90;;;;;;5072507;28;20064;-54
2021/07/04 07:21:55;;;;;;;8.15;5.10;;;23.40;99.90;;;;;;5070483;28;20032;-55
2021/07/04 07:24:20;;;;;;;5.50;4.35;;;23.50;99.90;;;;;;5070729;28;20494;-55
2021/07/04 07:26:46;;;;;;;5.45;4.68;;;23.70;99.90;;;;;;5069700;28;20127;-54
2021/07/04 07:29:12;;;;;;;5.90;5.13;;;23.80;99.90;;;;;;5071126;28;20055;-54
2021/07/04 07:31:37;;;;;;;4.97;4.57;;;23.90;99.90;;;;;;5072089;28;20539;-54
2021/07/04 07:34:04;;;;;;;6.22;5.65;;;24.00;99.90;;;;;;5073548;28;20218;-55
2021/07/04 07:36:30;;;;;;;6.03;5.43;;;24.10;99.90;;;;;;5092314;28;20032;-55
2021/07/04 07:38:56;;;;;;;9.95;5.07;;;24.20;99.90;;;;;;5091559;28;20339;-54
2021/07/04 07:41:22;;;;;;;8.05;5.85;;;24.20;99.90;;;;;;5090907;28;20055;-55
2021/07/04 07:43:48;;;;;;;6.80;5.05;;;24.10;99.90;;;;;;5078081;28;20139;-59
2021/07/04 07:46:15;;;;;;;9.57;5.63;;;24.20;99.90;;;;;;5079041;28;20028;-55
2021/07/04 07:48:41;;;;;;;5.35;4.63;;;24.40;99.90;;;;;;5077323;28;20210;-55
2021/07/04 07:51:06;;;;;;;5.28;4.38;;;24.40;99.90;;;;;;5077973;28;20217;-55
2021/07/04 07:53:33;;;;;;;7.82;6.60;;;24.50;99.90;;;;;;5090171;28;20500;-56
2021/07/04 07:55:59;;;;;;;5.97;4.47;;;24.30;99.90;;;;;;5083632;28;20031;-54
2021/07/04 07:58:25;;;;;;;6.63;5.03;;;24.10;99.90;;;;;;5068993;28;20107;-52
2021/07/04 08:00:51;;;;;;;4.93;4.53;;;24.30;99.90;;;;;;5070078;28;20145;-55
2021/07/04 08:03:16;;;;;;;7.75;4.63;;;24.20;99.90;;;;;;5070549;28;20043;-52
2021/07/04 08:05:42;;;;;;;7.05;5.10;;;24.30;99.90;;;;;;5067287;28;20028;-54
2021/07/04 08:08:08;;;;;;;7.97;5.00;;;24.50;99.90;;;;;;5072800;28;20044;-52
2021/07/04 08:10:35;;;;;;;6.70;5.20;;;24.60;99.90;;;;;;5088807;28;20039;-54
2021/07/04 08:13:01;;;;;;;5.10;4.57;;;24.70;99.90;;;;;;5090514;28;20031;-54
2021/07/04 08:15:27;;;;;;;8.70;5.70;;;25.00;99.90;;;;;;5091281;28;20132;-53
2021/07/04 08:17:53;;;;;;;8.32;4.50;;;25.40;99.90;;;;;;5088402;28;20454;-53
2021/07/04 08:20:19;;;;;;;7.60;4.97;;;25.60;99.90;;;;;;5089055;28;20035;-53
2021/07/04 08:22:45;;;;;;;6.03;4.95;;;25.60;99.40;;;;;;5081395;28;20056;-52
2021/07/04 08:25:11;;;;;;;6.57;5.20;;;25.60;99.50;;;;;;5050110;28;20025;-53
2021/07/04 08:27:37;;;;;;;7.88;4.47;;;25.70;99.70;;;;;;5032615;28;20037;-53
2021/07/04 08:30:05;;;;;;;6.20;5.60;;;25.80;99.60;;;;;;5031289;28;20514;-53
2021/07/04 08:32:30;;;;;;;11.93;5.22;;;26.30;99.20;;;;;;5032785;28;20371;-57
2021/07/04 08:34:56;;;;;;;10.10;5.18;;;26.40;98.30;;;;;;5049724;28;20055;-55
2021/07/04 08:37:22;;;;;;;6.53;5.35;;;26.40;98.30;;;;;;5031569;28;20033;-53
2021/07/04 08:39:48;;;;;;;7.43;5.03;;;26.50;98.20;;;;;;5049333;28;20098;-62
2021/07/04 08:42:13;;;;;;;5.93;5.25;;;26.50;97.80;;;;;;5032192;28;20049;-53
2021/07/04 08:44:47;;;;;;;7.10;4.80;;;26.50;98.00;;;;;;5032315;28;20021;-52
2021/07/04 08:47:15;;;;;;;8.48;5.45;;;26.50;98.30;;;;;;5051747;28;20059;-53
2021/07/04 08:49:40;;;;;;;7.07;5.32;;;26.70;98.10;;;;;;5033326;28;20021;-51
2021/07/04 08:52:06;;;;;;;6.40;5.40;;;26.60;97.50;;;;;;5049629;28;20047;-53
2021/07/04 08:54:32;;;;;;;7.22;5.35;;;26.70;97.80;;;;;;5057659;28;20089;-51
2021/07/04 08:56:57;;;;;;;8.35;5.07;;;27.00;97.10;;;;;;5038076;28;20033;-55
2021/07/04 08:59:23;;;;;;;6.13;5.43;;;27.00;96.90;;;;;;5031322;28;20047;-50
2021/07/04 09:01:50;;;;;;;12.57;5.15;;;26.90;96.60;;;;;;5051258;28;20064;-59
2021/07/04 09:04:21;;;;;;;7.55;5.25;;;26.60;97.20;;;;;;5031600;28;20459;-51
2021/07/04 09:06:48;;;;;;;10.13;5.85;;;26.80;97.10;;;;;;5049371;28;20040;-52
2021/07/04 09:09:17;;;;;;;6.82;5.00;;;26.90;97.20;;;;;;5049035;28;20029;-52
2021/07/04 09:12:00;;;;;;;6.60;5.60;;;26.70;97.10;;;;;;5031601;28;20451;-50
2021/07/04 09:14:29;;;;;;;10.75;5.72;;;26.60;96.90;;;;;;5031235;28;20470;-52
2021/07/04 09:16:56;;;;;;;6.07;4.97;;;26.50;97.90;;;;;;5029849;28;20492;-52
2021/07/04 09:19:22;;;;;;;5.05;4.65;;;26.70;97.50;;;;;;5049671;28;20229;-52
2021/07/04 09:21:56;;;;;;;9.43;5.63;;;26.80;97.20;;;;;;5058922;28;20063;-52
2021/07/04 09:24:37;;;;;;;5.95;5.35;;;26.80;97.10;;;;;;5080118;28;20101;-57
2021/07/04 09:27:03;;;;;;;;;;;26.70;97.00;;;;;;5089117;28;20488;-55
2021/07/04 09:29:46;;;;;;;5.97;5.47;;;26.40;97.30;;;;;;5088692;28;19927;-52
2021/07/04 09:32:21;;;;;;;8.35;5.35;;;26.30;97.30;;;;;;5074071;28;20021;-52
2021/07/04 09:35:05;;;;;;;8.20;6.38;;;26.00;97.80;;;;;;5068341;28;20025;-51
2021/07/04 09:37:39;;;;;;;7.35;5.15;;;25.90;98.20;;;;;;5068155;28;20028;-51
2021/07/04 09:40:10;;;;;;;8.18;5.35;;;25.90;98.70;;;;;;5068421;28;20069;-53
2021/07/04 09:42:56;;;;;;;6.00;5.20;;;25.80;98.60;;;;;;5068689;28;20035;-54
2021/07/04 09:45:24;;;;;;;7.05;5.47;;;25.60;99.10;;;;;;5068140;28;20031;-53
2021/07/04 09:47:54;;;;;;;6.88;5.57;;;25.70;99.40;;;;;;5067646;28;20054;-51
2021/07/04 09:50:21;;;;;;;5.97;5.43;;;25.80;98.70;;;;;;5069293;28;20029;-51
2021/07/04 09:53:02;;;;;;;6.97;5.68;;;25.90;98.70;;;;;;5071811;28;20446;-53
2021/07/04 09:55:29;;;;;;;8.23;5.10;;;26.30;98.10;;;;;;5072527;28;20024;-52
2021/07/04 09:57:57;;;;;;;6.28;5.35;;;26.60;97.60;;;;;;5075092;28;20035;-62
2021/07/04 10:00:25;;;;;;;6.50;5.78;;;26.50;97.70;;;;;;5091710;28;20439;-56
2021/07/04 10:03:21;;;;;;;6.93;5.57;;;26.40;97.70;;;;;;5086115;28;20025;-52
2021/07/04 10:05:55;;;;;;;6.20;5.60;;;26.20;97.90;;;;;;5071653;28;20056;-53
2021/07/04 10:08:30;;;;;;;6.45;4.88;;;26.50;98.10;;;;;;5071065;28;20119;-52
2021/07/04 10:11:00;;;;;;;8.10;5.20;;;26.60;95.80;;;;;;5071976;28;20119;-60
2021/07/04 10:13:28;;;;;;;10.88;4.95;;;26.70;96.20;;;;;;5075364;28;20442;-53
2021/07/04 10:15:55;;;;;;;6.32;5.03;;;26.90;95.30;;;;;;5073578;28;20040;-61
2021/07/04 10:18:22;;;;;;;9.18;5.30;;;27.00;95.50;;;;;;5093559;28;20028;-52
2021/07/04 10:20:50;;;;;;;20.15;10.52;;;27.10;95.40;;;;;;5091644;28;20119;-53
2021/07/04 10:23:19;;;;;;;11.73;7.38;;;26.90;95.80;;;;;;5082214;28;20100;-52
2021/07/04 10:25:47;;;;;;;12.70;7.82;;;26.70;96.10;;;;;;5091584;28;20027;-51
2021/07/04 10:28:16;;;;;;;10.00;6.97;;;26.90;96.00;;;;;;5078390;28;20755;-53
2021/07/04 10:30:43;;;;;;;6.53;5.50;;;26.60;95.90;;;;;;5083603;28;20032;-52
2021/07/04 10:33:32;;;;;;;8.88;5.55;;;26.60;96.10;;;;;;5073104;28;20028;-60
2021/07/04 10:35:58;;;;;;;7.10;5.68;;;26.70;95.60;;;;;;5072310;28;20079;-54
2021/07/04 10:38:24;;;;;;;7.38;5.53;;;27.10;95.40;;;;;;5073279;28;20450;-54
2021/07/04 10:41:03;;;;;;;7.78;5.88;;;27.30;95.00;;;;;;5071555;28;20115;-55
2021/07/04 10:43:48;;;;;;;4.68;4.28;;;27.30;95.30;;;;;;5072196;28;20381;-54
2021/07/04 10:46:14;;;;;;;8.60;5.47;;;27.40;94.70;;;;;;5072294;28;20096;-56
2021/07/04 10:49:00;;;;;;;9.60;4.90;;;27.20;94.20;;;;;;5070535;28;20389;-55
2021/07/04 10:51:26;;;;;;;5.38;4.88;;;27.20;94.40;;;;;;5070750;28;20068;-56
2021/07/04 10:53:55;;;;;;;5.15;4.65;;;27.00;94.50;;;;;;5070566;28;20466;-56
2021/07/04 10:56:33;;;;;;;6.22;5.13;;;27.00;94.80;;;;;;5070701;28;20024;-59
2021/07/04 10:59:19;;;;;;;8.73;5.35;;;26.70;95.10;;;;;;5070286;28;20021;-57
2021/07/04 11:01:57;;;;;;;13.20;5.63;;;26.90;94.30;;;;;;5069945;28;20059;-58
2021/07/04 11:04:33;;;;;;;8.88;5.25;;;26.90;95.60;;;;;;5070431;28;20029;-58
2021/07/04 11:07:04;;;;;;;7.13;5.07;;;26.90;94.70;;;;;;5072128;28;20055;-63
2021/07/04 11:09:52;;;;;;;8.00;4.78;;;26.90;94.40;;;;;;5070893;28;20052;-62
2021/07/04 11:12:32;;;;;;;10.52;5.07;;;27.10;92.80;;;;;;5070330;28;20584;-57
2021/07/04 11:15:13;;;;;;;6.07;4.20;;;27.40;94.50;;;;;;5070315;28;20024;-56
2021/07/04 11:17:57;;;;;;;;;;;27.70;94.00;;;;;;5079407;28;20042;-55
2021/07/04 11:20:39;;;;;;;4.90;4.47;;;27.60;92.20;;;;;;5076166;28;20223;-55
2021/07/04 11:23:19;;;;;;;5.68;4.00;;;27.50;92.20;;;;;;5079511;28;20047;-59
2021/07/04 11:25:59;;;;;;;4.97;4.17;;;27.80;91.70;;;;;;5087395;28;20051;-60
2021/07/04 11:28:33;;;;;;;7.72;4.32;;;27.80;91.80;;;;;;5075800;28;20033;-58
2021/07/04 11:30:58;;;;;;;5.38;4.47;;;27.40;92.20;;;;;;5069557;28;20111;-61
2021/07/04 11:33:42;;;;;;;8.13;4.78;;;27.00;92.20;;;;;;5069004;28;20529;-57
2021/07/04 11:36:15;;;;;;;5.00;4.47;;;27.00;92.50;;;;;;5069012;28;20028;-57
2021/07/04 11:38:50;;;;;;;6.80;4.97;;;26.90;92.90;;;;;;5083242;28;20066;-55
2021/07/04 11:41:27;;;;;;;6.63;4.50;;;26.70;93.80;;;;;;5089186;28;20035;-58
2021/07/04 11:44:03;;;;;;;7.15;5.20;;;26.50;93.60;;;;;;5089446;28;20410;-55
2021/07/04 11:46:30;;;;;;;5.03;4.38;;;26.60;93.90;;;;;;5083667;28;20591;-55
2021/07/04 11:49:08;;;;;;;9.77;5.38;;;26.50;93.70;;;;;;5069595;28;20032;-58
2021/07/04 11:51:42;;;;;;;4.60;4.20;;;26.20;94.30;;;;;;5069791;28;20029;-58
2021/07/04 11:54:26;;;;;;;7.40;5.15;;;26.10;94.90;;;;;;5070466;28;20115;-57
2021/07/04 11:59:52;;;;;;;7.35;5.10;;;25.90;96.40;;;;;;5072295;28;20040;-60
2021/07/04 12:02:18;;;;;;;6.28;5.10;;;25.50;97.80;;;;;;5076352;28;20028;-57
2021/07/04 12:04:44;;;;;;;6.40;5.00;;;25.30;97.80;;;;;;5091826;28;20131;-56
2021/07/04 12:07:15;;;;;;;8.60;5.45;;;25.40;97.90;;;;;;5089595;28;20058;-57
2021/07/04 12:09:49;;;;;;;5.88;5.30;;;25.20;97.90;;;;;;5089726;28;20079;-58
2021/07/04 12:12:19;;;;;;;6.30;5.53;;;25.10;98.40;;;;;;5089197;28;20124;-57
2021/07/04 12:14:47;;;;;;;5.95;4.95;;;24.90;98.60;;;;;;5089365;28;20024;-57
2021/07/04 12:17:16;;;;;;;4.47;3.60;;;24.60;98.30;;;;;;5088943;28;20055;-57
2021/07/04 12:19:43;;;;;;;6.15;3.22;;;24.00;97.90;;;;;;5089784;28;20469;-55
2021/07/04 12:22:13;;;;;;;4.93;2.95;;;23.70;99.00;;;;;;5104048;28;20027;-59
2021/07/04 12:24:44;;;;;;;5.00;2.67;;;23.50;98.10;;;;;;5109196;28;20047;-56
2021/07/04 12:27:10;;;;;;;3.85;2.25;;;23.40;98.20;;;;;;5102055;28;20040;-56
2021/07/04 12:30:07;;;;;;;3.72;2.97;;;23.40;97.80;;;;;;5070378;28;20418;-57
2021/07/04 12:32:42;;;;;;;2.92;2.45;;;23.50;98.10;;;;;;5070742;28;20037;-57
2021/07/04 12:35:18;;;;;;;3.40;2.58;;;23.70;97.90;;;;;;5068967;28;20055;-57
2021/07/04 12:37:44;;;;;;;3.92;2.85;;;23.70;98.00;;;;;;5053217;28;20024;-58
2021/07/04 12:40:16;;;;;;;3.70;3.15;;;23.90;98.00;;;;;;5067558;28;20191;-56
2021/07/04 12:42:42;;;;;;;3.42;2.25;;;24.00;97.70;;;;;;5068262;28;20056;-57
2021/07/04 12:45:19;;;;;;;2.55;2.20;;;24.10;97.70;;;;;;5081852;28;20460;-57
2021/07/04 12:47:56;;;;;;;5.07;3.10;;;24.10;96.90;;;;;;5089994;28;20036;-59
2021/07/04 12:50:22;;;;;;;3.50;3.13;;;24.00;97.70;;;;;;5068474;28;20063;-57
2021/07/04 12:52:59;;;;;;;4.60;3.47;;;24.00;98.20;;;;;;5068763;28;20032;-57